Gerard D — WTG3761 — position and weather

sailwx.info

Track history (hours):
 
Tides and Currents Weather Stations Pressure Air Temp Water Temp Dewpoint Dewpoint Depression Visibility Wind Speed Wind Dir Waves Ship Positions

Gerard D

Owner: WEEKS MARINE, INC., CRANFORD, NJ. More information available from US FCC via Universal Licensing System and Coast Guard Vessel Documentation Center.

Last reported at 2017-Sep-21 07:36 UTC. Time now 2017-Sep-22 04:30 UTC.
Position N 30°04' W 093°40'.

Length 20 m; draft 3 m.

Type: Tug. MMSI: 366939130.

Date/timePositionNaut miles runAvg speedWind from/ knotsBaromVisibWave heightAir tempDewpointWater temp
2017-Sep-21 07:36N 30°04' W 093°40'0 3.8
2017-Sep-21 07:30N 30°04' W 093°39'2 3.7
2017-Sep-21 06:58N 30°04' W 093°37'2 3.2
2017-Sep-21 06:27N 30°04' W 093°35'1 2.8
2017-Sep-21 06:00N 30°04' W 093°34'2 3.0
2017-Sep-21 05:30N 30°04' W 093°32'1 2.9
2017-Sep-21 05:00N 30°04' W 093°30'1 2.9
2017-Sep-21 04:30N 30°04' W 093°29'1 2.6
2017-Sep-21 04:00N 30°04' W 093°27'1 2.9
2017-Sep-21 03:30N 30°04' W 093°25'1 2.8
2017-Sep-21 03:00N 30°04' W 093°24'2 3.2
2017-Sep-21 02:30N 30°04' W 093°22'2 3.1
2017-Sep-21 02:00N 30°04' W 093°20'1 1.7
2017-Sep-21 01:30N 30°05' W 093°20'2 3.8
2017-Sep-21 01:00N 30°03' W 093°20'2 4.3
2017-Sep-21 00:30N 30°01' W 093°20'2 4.2
2017-Sep-21 00:00N 29°59' W 093°20'2 4.2
2017-Sep-20 23:30N 29°57' W 093°20'2 4.4
2017-Sep-20 22:59N 29°54' W 093°20'2 4.3
2017-Sep-20 22:30N 29°52' W 093°21'  
2017-Sep-17 01:32N 29°46' W 093°21'0 0.3
2017-Sep-17 01:30N 29°46' W 093°21'0 0.0
2017-Sep-16 12:38N 29°47' W 093°21'4 0.1
2017-Sep-14 18:54N 29°50' W 093°21'2 4.7
2017-Sep-14 18:28N 29°52' W 093°21'2 4.6
2017-Sep-14 18:00N 29°54' W 093°21'3 5.2
2017-Sep-14 17:30N 29°57' W 093°20'3 6.3
2017-Sep-14 17:00N 30°00' W 093°20'3 6.5
2017-Sep-14 16:30N 30°03' W 093°20'3 5.6
2017-Sep-14 16:00N 30°06' W 093°18'2 3.3
2017-Sep-14 15:30N 30°05' W 093°17'3 6.3
2017-Sep-14 15:00N 30°02' W 093°15'4 7.0
2017-Sep-14 14:30N 29°59' W 093°13'4 7.7
2017-Sep-14 14:00N 29°56' W 093°10'43 7.0
2017-Sep-14 07:52N 29°51' W 092°21'2 6.1
2017-Sep-14 07:30N 29°50' W 092°18'3 6.4
2017-Sep-14 07:00N 29°48' W 092°15'3 6.2
2017-Sep-14 06:30N 29°47' W 092°12'3 5.4
2017-Sep-14 06:00N 29°47' W 092°09'3 6.5
2017-Sep-14 05:30N 29°48' W 092°05'66 6.4
2017-Sep-13 19:08N 29°32' W 090°51'1 7.3
2017-Sep-13 19:00N 29°32' W 090°50'4 7.1
2017-Sep-13 18:30N 29°32' W 090°46'3 6.1
2017-Sep-13 18:00N 29°34' W 090°43'4 2.6
2017-Sep-13 16:36N 29°36' W 090°40'0 0.0
2017-Sep-13 16:30N 29°36' W 090°40'0 0.0
2017-Sep-13 16:00N 29°36' W 090°40'0 0.0
2017-Sep-13 15:30N 29°36' W 090°40'0 0.0
2017-Sep-13 15:00N 29°36' W 090°40'0 0.0
2017-Sep-13 14:30N 29°36' W 090°40'0 0.0
2017-Sep-13 14:00N 29°36' W 090°40'0 0.0
2017-Sep-13 13:30N 29°36' W 090°40'0 0.0
2017-Sep-13 13:00N 29°36' W 090°40'0 0.0
2017-Sep-13 12:30N 29°36' W 090°40'0 0.0
2017-Sep-13 12:00N 29°36' W 090°40'0 0.0
2017-Sep-13 11:30N 29°36' W 090°40'0 0.0
2017-Sep-13 11:00N 29°36' W 090°40'0 0.0
2017-Sep-13 10:30N 29°36' W 090°40'0 0.0
2017-Sep-13 10:00N 29°36' W 090°40'0 0.0
2017-Sep-13 09:30N 29°36' W 090°40'0 0.0
2017-Sep-13 09:00N 29°36' W 090°40'0 0.0
2017-Sep-13 08:30N 29°36' W 090°40'0 0.0
2017-Sep-13 08:00N 29°36' W 090°40'0 0.0
2017-Sep-13 07:30N 29°36' W 090°40'0 0.0
2017-Sep-13 07:00N 29°36' W 090°40'0 0.0
2017-Sep-13 06:30N 29°36' W 090°40'0 0.0
2017-Sep-13 06:00N 29°36' W 090°40'0 0.0
2017-Sep-13 05:30N 29°36' W 090°40'0 0.0
2017-Sep-13 05:00N 29°36' W 090°40'0 0.0
2017-Sep-13 04:30N 29°36' W 090°40'0 0.0
2017-Sep-13 04:00N 29°36' W 090°40'0 0.0
2017-Sep-13 03:30N 29°36' W 090°40'0 0.0
2017-Sep-13 03:00N 29°36' W 090°40'0 0.0
2017-Sep-13 02:30N 29°36' W 090°40'0 0.0
2017-Sep-13 02:00N 29°36' W 090°40'0 0.0
2017-Sep-13 01:30N 29°36' W 090°40'0 0.0
2017-Sep-13 01:00N 29°36' W 090°40'0 0.0
2017-Sep-13 00:30N 29°36' W 090°40'0 0.0
2017-Sep-13 00:00N 29°36' W 090°40'0 0.0
2017-Sep-12 23:30N 29°36' W 090°40'0 0.0
2017-Sep-12 23:00N 29°36' W 090°40'0 0.0
2017-Sep-12 22:30N 29°36' W 090°40'0 0.0
2017-Sep-12 22:00N 29°36' W 090°40'0 0.0
2017-Sep-12 21:30N 29°36' W 090°40'0 0.0
2017-Sep-12 21:00N 29°36' W 090°40'0 0.0
2017-Sep-12 20:05N 29°36' W 090°40'0 0.0
2017-Sep-12 20:00N 29°36' W 090°40'0 0.0
2017-Sep-12 19:30N 29°36' W 090°40'0 0.0
2017-Sep-12 18:59N 29°36' W 090°40'0 0.0
2017-Sep-12 18:30N 29°36' W 090°40'0 0.0
2017-Sep-12 18:00N 29°36' W 090°40'0 0.0
2017-Sep-12 17:30N 29°36' W 090°40'0 0.0
2017-Sep-12 17:00N 29°36' W 090°40'0 0.0
2017-Sep-12 16:30N 29°36' W 090°40'0 0.0
2017-Sep-12 16:00N 29°36' W 090°40'0 0.0
2017-Sep-12 15:30N 29°36' W 090°40'0 0.0
2017-Sep-12 15:00N 29°36' W 090°40'0 0.0
2017-Sep-12 14:30N 29°36' W 090°40'0 0.0
2017-Sep-12 14:00N 29°36' W 090°40'0 0.0
2017-Sep-12 13:30N 29°36' W 090°40'0 0.0
2017-Sep-12 13:00N 29°36' W 090°40'0 0.0
2017-Sep-12 12:30N 29°36' W 090°40'0 0.0
2017-Sep-12 09:15N 29°36' W 090°40'0 0.0
2017-Sep-12 09:00N 29°36' W 090°40'0 0.0
2017-Sep-12 08:30N 29°36' W 090°40'0 0.0
2017-Sep-12 08:00N 29°36' W 090°40'0 0.0
2017-Sep-12 07:30N 29°36' W 090°40'0 0.0
2017-Sep-12 07:00N 29°36' W 090°40'0 0.0
2017-Sep-12 06:30N 29°36' W 090°40'0 0.0
2017-Sep-12 06:00N 29°36' W 090°40'0 0.0
2017-Sep-12 05:30N 29°36' W 090°40'0 0.0
2017-Sep-12 05:00N 29°36' W 090°40'0 0.0
2017-Sep-12 04:30N 29°36' W 090°40'0 0.0
2017-Sep-12 04:00N 29°36' W 090°40'0 0.0
2017-Sep-12 03:30N 29°36' W 090°40'1 2.1
2017-Sep-12 03:00N 29°36' W 090°41'2 3.5
2017-Sep-12 02:30N 29°36' W 090°43'2 3.9
2017-Sep-12 02:00N 29°34' W 090°44'2 3.0
2017-Sep-12 01:30N 29°33' W 090°45'3 5.2
2017-Sep-12 01:00N 29°32' W 090°48'  
Track history (hours):
 
Tides and Currents Weather Stations Pressure Air Temp Water Temp Dewpoint Dewpoint Depression Visibility Wind Speed Wind Dir Waves Ship Positions

Gerard D

Owner: WEEKS MARINE, INC., CRANFORD, NJ. More information available from US FCC via Universal Licensing System and Coast Guard Vessel Documentation Center.

Last reported at 2017-Sep-21 07:36 UTC. Time now 2017-Sep-22 04:30 UTC.
Position N 30°04' W 093°40'.

Length 20 m; draft 3 m.

Type: Tug. MMSI: 366939130.

Date/timePositionNaut miles runAvg speedWind from/ knotsBaromVisibWave heightAir tempDewpointWater temp
2017-Sep-21 07:36N 30°04' W 093°40'0 3.8
2017-Sep-21 07:30N 30°04' W 093°39'2 3.7
2017-Sep-21 06:58N 30°04' W 093°37'2 3.2
2017-Sep-21 06:27N 30°04' W 093°35'1 2.8
2017-Sep-21 06:00N 30°04' W 093°34'2 3.0
2017-Sep-21 05:30N 30°04' W 093°32'1 2.9
2017-Sep-21 05:00N 30°04' W 093°30'1 2.9
2017-Sep-21 04:30N 30°04' W 093°29'1 2.6
2017-Sep-21 04:00N 30°04' W 093°27'1 2.9
2017-Sep-21 03:30N 30°04' W 093°25'1 2.8
2017-Sep-21 03:00N 30°04' W 093°24'2 3.2
2017-Sep-21 02:30N 30°04' W 093°22'2 3.1
2017-Sep-21 02:00N 30°04' W 093°20'1 1.7
2017-Sep-21 01:30N 30°05' W 093°20'2 3.8
2017-Sep-21 01:00N 30°03' W 093°20'2 4.3
2017-Sep-21 00:30N 30°01' W 093°20'2 4.2
2017-Sep-21 00:00N 29°59' W 093°20'2 4.2
2017-Sep-20 23:30N 29°57' W 093°20'2 4.4
2017-Sep-20 22:59N 29°54' W 093°20'2 4.3
2017-Sep-20 22:30N 29°52' W 093°21'  
2017-Sep-17 01:32N 29°46' W 093°21'0 0.3
2017-Sep-17 01:30N 29°46' W 093°21'0 0.0
2017-Sep-16 12:38N 29°47' W 093°21'4 0.1
2017-Sep-14 18:54N 29°50' W 093°21'2 4.7
2017-Sep-14 18:28N 29°52' W 093°21'2 4.6
2017-Sep-14 18:00N 29°54' W 093°21'3 5.2
2017-Sep-14 17:30N 29°57' W 093°20'3 6.3
2017-Sep-14 17:00N 30°00' W 093°20'3 6.5
2017-Sep-14 16:30N 30°03' W 093°20'3 5.6
2017-Sep-14 16:00N 30°06' W 093°18'2 3.3
2017-Sep-14 15:30N 30°05' W 093°17'3 6.3
2017-Sep-14 15:00N 30°02' W 093°15'4 7.0
2017-Sep-14 14:30N 29°59' W 093°13'4 7.7
2017-Sep-14 14:00N 29°56' W 093°10'43 7.0
2017-Sep-14 07:52N 29°51' W 092°21'2 6.1
2017-Sep-14 07:30N 29°50' W 092°18'3 6.4
2017-Sep-14 07:00N 29°48' W 092°15'3 6.2
2017-Sep-14 06:30N 29°47' W 092°12'3 5.4
2017-Sep-14 06:00N 29°47' W 092°09'3 6.5
2017-Sep-14 05:30N 29°48' W 092°05'66 6.4
2017-Sep-13 19:08N 29°32' W 090°51'1 7.3
2017-Sep-13 19:00N 29°32' W 090°50'4 7.1
2017-Sep-13 18:30N 29°32' W 090°46'3 6.1
2017-Sep-13 18:00N 29°34' W 090°43'4 2.6
2017-Sep-13 16:36N 29°36' W 090°40'0 0.0
2017-Sep-13 16:30N 29°36' W 090°40'0 0.0
2017-Sep-13 16:00N 29°36' W 090°40'0 0.0
2017-Sep-13 15:30N 29°36' W 090°40'0 0.0
2017-Sep-13 15:00N 29°36' W 090°40'0 0.0
2017-Sep-13 14:30N 29°36' W 090°40'0 0.0
2017-Sep-13 14:00N 29°36' W 090°40'0 0.0
2017-Sep-13 13:30N 29°36' W 090°40'0 0.0
2017-Sep-13 13:00N 29°36' W 090°40'0 0.0
2017-Sep-13 12:30N 29°36' W 090°40'0 0.0
2017-Sep-13 12:00N 29°36' W 090°40'0 0.0
2017-Sep-13 11:30N 29°36' W 090°40'0 0.0
2017-Sep-13 11:00N 29°36' W 090°40'0 0.0
2017-Sep-13 10:30N 29°36' W 090°40'0 0.0
2017-Sep-13 10:00N 29°36' W 090°40'0 0.0
2017-Sep-13 09:30N 29°36' W 090°40'0 0.0
2017-Sep-13 09:00N 29°36' W 090°40'0 0.0
2017-Sep-13 08:30N 29°36' W 090°40'0 0.0
2017-Sep-13 08:00N 29°36' W 090°40'0 0.0
2017-Sep-13 07:30N 29°36' W 090°40'0 0.0
2017-Sep-13 07:00N 29°36' W 090°40'0 0.0
2017-Sep-13 06:30N 29°36' W 090°40'0 0.0
2017-Sep-13 06:00N 29°36' W 090°40'0 0.0
2017-Sep-13 05:30N 29°36' W 090°40'0 0.0
2017-Sep-13 05:00N 29°36' W 090°40'0 0.0
2017-Sep-13 04:30N 29°36' W 090°40'0 0.0
2017-Sep-13 04:00N 29°36' W 090°40'0 0.0
2017-Sep-13 03:30N 29°36' W 090°40'0 0.0
2017-Sep-13 03:00N 29°36' W 090°40'0 0.0
2017-Sep-13 02:30N 29°36' W 090°40'0 0.0
2017-Sep-13 02:00N 29°36' W 090°40'0 0.0
2017-Sep-13 01:30N 29°36' W 090°40'0 0.0
2017-Sep-13 01:00N 29°36' W 090°40'0 0.0
2017-Sep-13 00:30N 29°36' W 090°40'0 0.0
2017-Sep-13 00:00N 29°36' W 090°40'0 0.0
2017-Sep-12 23:30N 29°36' W 090°40'0 0.0
2017-Sep-12 23:00N 29°36' W 090°40'0 0.0
2017-Sep-12 22:30N 29°36' W 090°40'0 0.0
2017-Sep-12 22:00N 29°36' W 090°40'0 0.0
2017-Sep-12 21:30N 29°36' W 090°40'0 0.0
2017-Sep-12 21:00N 29°36' W 090°40'0 0.0
2017-Sep-12 20:05N 29°36' W 090°40'0 0.0
2017-Sep-12 20:00N 29°36' W 090°40'0 0.0
2017-Sep-12 19:30N 29°36' W 090°40'0 0.0
2017-Sep-12 18:59N 29°36' W 090°40'0 0.0
2017-Sep-12 18:30N 29°36' W 090°40'0 0.0
2017-Sep-12 18:00N 29°36' W 090°40'0 0.0
2017-Sep-12 17:30N 29°36' W 090°40'0 0.0
2017-Sep-12 17:00N 29°36' W 090°40'0 0.0
2017-Sep-12 16:30N 29°36' W 090°40'0 0.0
2017-Sep-12 16:00N 29°36' W 090°40'0 0.0
2017-Sep-12 15:30N 29°36' W 090°40'0 0.0
2017-Sep-12 15:00N 29°36' W 090°40'0 0.0
2017-Sep-12 14:30N 29°36' W 090°40'0 0.0
2017-Sep-12 14:00N 29°36' W 090°40'0 0.0
2017-Sep-12 13:30N 29°36' W 090°40'0 0.0
2017-Sep-12 13:00N 29°36' W 090°40'0 0.0
2017-Sep-12 12:30N 29°36' W 090°40'0 0.0
2017-Sep-12 09:15N 29°36' W 090°40'0 0.0
2017-Sep-12 09:00N 29°36' W 090°40'0 0.0
2017-Sep-12 08:30N 29°36' W 090°40'0 0.0
2017-Sep-12 08:00N 29°36' W 090°40'0 0.0
2017-Sep-12 07:30N 29°36' W 090°40'0 0.0
2017-Sep-12 07:00N 29°36' W 090°40'0 0.0
2017-Sep-12 06:30N 29°36' W 090°40'0 0.0
2017-Sep-12 06:00N 29°36' W 090°40'0 0.0
2017-Sep-12 05:30N 29°36' W 090°40'0 0.0
2017-Sep-12 05:00N 29°36' W 090°40'0 0.0
2017-Sep-12 04:30N 29°36' W 090°40'0 0.0
2017-Sep-12 04:00N 29°36' W 090°40'0 0.0
2017-Sep-12 03:30N 29°36' W 090°40'1 2.1
2017-Sep-12 03:00N 29°36' W 090°41'2 3.5
2017-Sep-12 02:30N 29°36' W 090°43'2 3.9
2017-Sep-12 02:00N 29°34' W 090°44'2 3.0
2017-Sep-12 01:30N 29°33' W 090°45'3 5.2
2017-Sep-12 01:00N 29°32' W 090°48'  

Dump ship's entire track history